Time;durP1;ratioP1;P1;durP2;ratioP2;P2;SDS_P1;SDS_P2;PMS_P1;PMS_P2;Temp;Humidity;BMP_temperature;BMP_pressure;BME280_temperature;BME280_humidity;BME280_pressure;Samples;Min_cycle;Max_cycle;Signal;HPM_P1;HPM_P2
2022/06/29 00:02:43;;;;;;;2.75;1.90;;;25.00;99.90;;;;;;6146871;28;88432;-65
2022/06/29 00:05:47;;;;;;;2.13;1.92;;;25.00;99.90;;;;;;6156431;28;89270;-66
2022/06/29 00:08:49;;;;;;;2.10;1.77;;;25.00;99.90;;;;;;6159436;28;89103;-65
2022/06/29 00:11:51;;;;;;;2.63;1.80;;;25.00;99.90;;;;;;6145649;28;90476;-66
2022/06/29 00:14:54;;;;;;;2.55;2.10;;;25.00;99.90;;;;;;6145172;28;89049;-65
2022/06/29 00:17:56;;;;;;;3.25;2.15;;;25.00;99.90;;;;;;6136341;28;89141;-66
2022/06/29 00:21:00;;;;;;;2.47;2.00;;;25.00;99.90;;;;;;6140744;28;88005;-65
2022/06/29 00:24:02;;;;;;;3.63;2.10;;;25.00;99.90;;;;;;6138298;28;89084;-65
2022/06/29 00:27:04;;;;;;;2.97;2.50;;;25.00;99.90;;;;;;6140678;28;89964;-65
2022/06/29 00:30:07;;;;;;;3.25;2.42;;;25.00;99.90;;;;;;6133751;28;87979;-65
2022/06/29 00:33:09;;;;;;;2.42;2.22;;;25.00;99.90;;;;;;6135839;28;87365;-65
2022/06/29 00:36:13;;;;;;;3.60;2.10;;;24.90;99.90;;;;;;6145291;28;89264;-65
2022/06/29 00:39:15;;;;;;;3.78;2.13;;;25.00;99.90;;;;;;6137186;28;89336;-65
2022/06/29 00:42:17;;;;;;;3.47;3.10;;;25.00;99.90;;;;;;6151193;28;89960;-65
2022/06/29 00:45:19;;;;;;;4.10;2.78;;;24.90;99.90;;;;;;6143479;28;89080;-65
2022/06/29 00:48:21;;;;;;;3.13;2.83;;;24.90;99.90;;;;;;6145869;28;89342;-65
2022/06/29 00:51:26;;;;;;;4.15;2.78;;;24.90;99.90;;;;;;6145484;28;89156;-65
2022/06/29 00:54:32;;;;;;;3.40;2.80;;;24.90;99.90;;;;;;6148352;28;89121;-65
2022/06/29 00:57:38;;;;;;;4.28;2.80;;;24.90;99.90;;;;;;6149529;28;89131;-65
2022/06/29 01:00:41;;;;;;;6.05;3.38;;;24.90;99.90;;;;;;6134151;28;89377;-65
2022/06/29 01:03:43;;;;;;;4.47;3.35;;;24.90;99.90;;;;;;6147153;28;88346;-65
2022/06/29 01:06:46;;;;;;;4.35;3.50;;;24.90;99.90;;;;;;6149246;28;89086;-65
2022/06/29 01:09:48;;;;;;;5.32;3.72;;;24.90;99.90;;;;;;6144758;28;89360;-65
2022/06/29 01:12:51;;;;;;;5.30;3.13;;;24.90;99.90;;;;;;6149243;28;89843;-65
2022/06/29 01:15:53;;;;;;;3.60;2.83;;;24.90;99.90;;;;;;6156374;28;87937;-65
2022/06/29 01:18:55;;;;;;;3.88;3.17;;;24.90;99.90;;;;;;6143604;28;89142;-65
2022/06/29 01:22:07;;;;;;;3.88;3.10;;;24.90;99.90;;;;;;6144868;28;89153;-65
2022/06/29 01:25:10;;;;;;;3.53;3.08;;;24.90;99.90;;;;;;6145790;28;89451;-65
2022/06/29 01:28:15;;;;;;;4.45;3.15;;;24.90;99.90;;;;;;6144246;28;90988;-65
2022/06/29 01:31:17;;;;;;;4.63;3.40;;;24.90;99.90;;;;;;6148054;28;88748;-65
2022/06/29 01:34:19;;;;;;;3.63;2.85;;;24.90;99.90;;;;;;6151553;28;88483;-65
2022/06/29 01:37:23;;;;;;;4.13;3.13;;;24.90;99.90;;;;;;6140086;28;89596;-65
2022/06/29 01:40:25;;;;;;;3.28;2.97;;;24.90;99.90;;;;;;6139613;28;89129;-65
2022/06/29 01:43:27;;;;;;;3.25;2.92;;;24.90;99.90;;;;;;6142775;28;90033;-65
2022/06/29 01:46:29;;;;;;;4.72;3.58;;;24.90;99.90;;;;;;6147353;28;89166;-65
2022/06/29 01:49:31;;;;;;;6.30;3.72;;;24.90;99.90;;;;;;6145209;28;87992;-65
2022/06/29 01:52:35;;;;;;;6.10;4.20;;;24.90;99.90;;;;;;6136738;28;89247;-65
2022/06/29 01:55:37;;;;;;;5.32;3.80;;;24.90;99.90;;;;;;6142673;28;89064;-65
2022/06/29 01:58:38;;;;;;;6.03;3.10;;;24.90;99.90;;;;;;6144537;28;90260;-65
2022/06/29 02:01:40;;;;;;;5.05;3.05;;;24.90;99.90;;;;;;6136434;28;89070;-65
2022/06/29 02:04:42;;;;;;;4.32;3.47;;;24.80;99.90;;;;;;6146795;28;87229;-66
2022/06/29 02:07:46;;;;;;;5.57;2.90;;;24.80;99.90;;;;;;6146469;28;89072;-65
2022/06/29 02:10:48;;;;;;;4.22;3.20;;;24.90;99.90;;;;;;6131448;28;89197;-65
2022/06/29 02:13:50;;;;;;;4.10;3.33;;;24.90;99.90;;;;;;6133767;28;90015;-65
2022/06/29 02:16:52;;;;;;;6.28;3.00;;;24.80;99.90;;;;;;6133351;28;89282;-65
2022/06/29 02:19:54;;;;;;;4.68;2.90;;;24.90;99.90;;;;;;6146819;28;89049;-66
2022/06/29 02:22:58;;;;;;;4.55;3.08;;;24.90;99.90;;;;;;6138937;28;89224;-65
2022/06/29 02:26:00;;;;;;;4.47;3.58;;;24.90;99.90;;;;;;6136347;28;89223;-66
2022/06/29 02:29:02;;;;;;;6.03;3.90;;;24.90;99.90;;;;;;6135769;28;89411;-65
2022/06/29 02:35:24;;;;;;;5.28;4.10;;;24.80;99.90;;;;;;6143285;28;86626;-65
2022/06/29 02:38:27;;;;;;;5.05;3.78;;;24.80;99.90;;;;;;6153631;28;89030;-65
2022/06/29 02:41:29;;;;;;;4.10;3.40;;;24.80;99.90;;;;;;6144408;28;89104;-65
2022/06/29 02:44:31;;;;;;;3.55;3.25;;;24.80;99.90;;;;;;6141300;28;90358;-65
2022/06/29 02:47:33;;;;;;;3.97;3.58;;;24.80;99.90;;;;;;6141880;28;89371;-65
2022/06/29 02:50:35;;;;;;;3.80;3.40;;;24.80;99.90;;;;;;6143662;28;87996;-66
2022/06/29 02:53:39;;;;;;;4.18;3.55;;;24.80;99.90;;;;;;6148569;28;89086;-66
2022/06/29 02:56:41;;;;;;;3.42;3.10;;;24.80;99.90;;;;;;6159050;28;89572;-66
2022/06/29 02:59:43;;;;;;;4.53;3.20;;;24.80;99.90;;;;;;6159365;28;89119;-66
2022/06/29 03:02:45;;;;;;;3.45;3.15;;;24.80;99.90;;;;;;6150403;28;89065;-66
2022/06/29 03:05:47;;;;;;;5.57;3.70;;;24.80;99.90;;;;;;6149229;28;89394;-66
2022/06/29 03:08:50;;;;;;;3.80;3.40;;;24.80;99.90;;;;;;6148428;28;89076;-65
2022/06/29 03:11:52;;;;;;;4.53;4.07;;;24.80;99.90;;;;;;6146657;28;89205;-65
2022/06/29 03:14:54;;;;;;;4.57;3.88;;;24.80;99.90;;;;;;6144618;28;90253;-65
2022/06/29 03:17:56;;;;;;;5.57;4.10;;;24.80;99.90;;;;;;6141521;28;89114;-65
2022/06/29 03:20:58;;;;;;;4.28;3.28;;;24.80;99.90;;;;;;6151295;28;89067;-66
2022/06/29 03:24:03;;;;;;;5.03;3.65;;;24.80;99.90;;;;;;6153882;28;87956;-65
2022/06/29 03:27:06;;;;;;;4.38;3.97;;;24.80;99.90;;;;;;6139245;28;87822;-66
2022/06/29 03:30:09;;;;;;;6.35;4.13;;;24.80;99.90;;;;;;6157995;28;87879;-65
2022/06/29 03:33:11;;;;;;;4.60;3.92;;;24.80;99.90;;;;;;6147391;28;89080;-66
2022/06/29 03:36:14;;;;;;;3.20;2.90;;;24.70;99.90;;;;;;6134814;28;88442;-66
2022/06/29 03:39:17;;;;;;;6.78;4.03;;;24.80;99.90;;;;;;6156329;28;89087;-66
2022/06/29 03:42:19;;;;;;;5.47;4.32;;;24.80;99.90;;;;;;6148358;28;89086;-66
2022/06/29 03:45:21;;;;;;;5.90;4.80;;;24.80;99.90;;;;;;6147338;28;90345;-66
2022/06/29 03:48:23;;;;;;;6.10;4.57;;;24.70;99.90;;;;;;6144147;28;89115;-65
2022/06/29 03:51:25;;;;;;;6.70;4.75;;;24.70;99.90;;;;;;6154483;28;89084;-65
2022/06/29 03:54:28;;;;;;;6.03;5.07;;;24.70;99.90;;;;;;6157606;28;90290;-66
2022/06/29 03:57:30;;;;;;;6.65;4.90;;;24.70;99.90;;;;;;6146756;28;89382;-65
2022/06/29 04:00:32;;;;;;;7.70;4.70;;;24.60;99.90;;;;;;6144225;28;87967;-66
2022/06/29 04:03:34;;;;;;;6.03;4.60;;;24.50;99.90;;;;;;6148748;28;89063;-66
2022/06/29 04:06:36;;;;;;;6.82;4.45;;;24.50;99.90;;;;;;6152473;28;88351;-65
2022/06/29 04:09:39;;;;;;;6.43;4.25;;;24.50;99.90;;;;;;6138784;28;89045;-65
2022/06/29 04:12:41;;;;;;;5.93;3.53;;;24.50;99.90;;;;;;6145355;28;89070;-66
2022/06/29 04:15:43;;;;;;;4.20;3.80;;;24.50;99.90;;;;;;6137295;28;90207;-65
2022/06/29 04:18:45;;;;;;;5.38;4.00;;;24.50;99.90;;;;;;6138568;28;89182;-66
2022/06/29 04:21:48;;;;;;;3.78;3.25;;;24.40;99.90;;;;;;6135090;28;89115;-66
2022/06/29 04:24:51;;;;;;;3.63;3.17;;;24.40;99.90;;;;;;6148941;28;89152;-66
2022/06/29 04:27:53;;;;;;;4.03;3.40;;;24.40;99.90;;;;;;6143980;28;89019;-66
2022/06/29 04:30:56;;;;;;;4.15;3.17;;;24.50;99.90;;;;;;6134764;28;89098;-65
2022/06/29 04:33:58;;;;;;;3.22;2.78;;;24.50;99.90;;;;;;6143820;28;89060;-65
2022/06/29 04:37:00;;;;;;;3.25;2.95;;;24.50;99.90;;;;;;6140937;28;88412;-65
2022/06/29 04:40:03;;;;;;;3.53;2.90;;;24.50;99.90;;;;;;6135424;28;89097;-65
2022/06/29 04:43:05;;;;;;;5.15;3.45;;;24.50;99.90;;;;;;6144911;28;89495;-65
2022/06/29 04:46:23;;;;;;;4.63;4.00;;;24.50;99.90;;;;;;6156268;28;90039;-66
2022/06/29 04:49:25;;;;;;;5.82;4.47;;;24.50;99.90;;;;;;6146006;28;88990;-66
2022/06/29 04:52:27;;;;;;;5.68;4.13;;;24.50;99.90;;;;;;6149315;28;88722;-66
2022/06/29 04:55:31;;;;;;;4.85;4.38;;;24.50;99.90;;;;;;6152198;28;89248;-66
2022/06/29 04:58:33;;;;;;;5.22;4.30;;;24.50;99.90;;;;;;6140172;28;87968;-66
2022/06/29 05:01:35;;;;;;;4.28;3.88;;;24.50;99.90;;;;;;6150794;28;89144;-67
2022/06/29 05:04:36;;;;;;;5.15;3.92;;;24.40;99.90;;;;;;6143870;28;89080;-67
2022/06/29 05:07:39;;;;;;;4.00;3.70;;;24.40;99.90;;;;;;6149758;28;88381;-67
2022/06/29 05:10:42;;;;;;;3.90;3.60;;;24.50;99.90;;;;;;6146972;28;89208;-67
2022/06/29 05:13:44;;;;;;;5.57;3.70;;;24.50;99.90;;;;;;6145445;28;89127;-66
2022/06/29 05:16:46;;;;;;;4.80;3.63;;;24.50;99.90;;;;;;6140008;28;90447;-66
2022/06/29 05:19:48;;;;;;;4.18;3.58;;;24.50;99.90;;;;;;6156150;28;89186;-67
2022/06/29 05:22:52;;;;;;;4.68;3.80;;;24.50;99.90;;;;;;6141386;28;89304;-67
2022/06/29 05:25:55;;;;;;;4.20;3.22;;;24.50;99.90;;;;;;6132976;28;89140;-67
2022/06/29 05:28:57;;;;;;;3.63;3.20;;;24.50;99.90;;;;;;6144676;28;89029;-66
2022/06/29 05:31:59;;;;;;;3.67;3.38;;;24.50;99.90;;;;;;6134699;28;88022;-67
2022/06/29 05:35:01;;;;;;;3.85;3.20;;;24.50;99.90;;;;;;6146460;28;89033;-66
2022/06/29 05:38:04;;;;;;;4.70;4.30;;;24.50;99.90;;;;;;6134099;28;88349;-66
2022/06/29 05:41:07;;;;;;;5.85;3.72;;;24.40;99.90;;;;;;6134575;28;89542;-66
2022/06/29 05:44:10;;;;;;;4.00;3.63;;;24.40;99.90;;;;;;6136184;28;89191;-66
2022/06/29 05:47:14;;;;;;;4.38;3.80;;;24.40;99.90;;;;;;6147127;28;90254;-66
2022/06/29 05:50:16;;;;;;;4.47;4.07;;;24.40;99.90;;;;;;6153617;28;89158;-66
2022/06/29 05:53:18;;;;;;;4.57;4.10;;;24.40;99.90;;;;;;6149986;28;89046;-66
2022/06/29 05:56:22;;;;;;;4.05;3.65;;;24.30;99.90;;;;;;6142400;28;89145;-66
2022/06/29 05:59:24;;;;;;;5.30;3.80;;;24.40;99.90;;;;;;6137055;28;88136;-66
2022/06/29 06:02:26;;;;;;;3.85;3.55;;;24.40;99.90;;;;;;6135154;28;89209;-66
2022/06/29 06:05:28;;;;;;;5.55;3.95;;;24.40;99.90;;;;;;6132607;28;90874;-66
2022/06/29 06:08:30;;;;;;;4.03;3.70;;;24.30;99.90;;;;;;6132734;28;88298;-66
2022/06/29 06:11:34;;;;;;;5.85;4.05;;;24.30;99.90;;;;;;6146222;28;89074;-67
2022/06/29 06:14:36;;;;;;;5.70;3.85;;;24.30;99.90;;;;;;6142996;28;88863;-66
2022/06/29 06:17:38;;;;;;;4.80;4.30;;;24.30;99.90;;;;;;6138577;28;89996;-66
2022/06/29 06:20:41;;;;;;;4.57;4.05;;;24.30;99.90;;;;;;6149845;28;89245;-66
2022/06/29 06:23:43;;;;;;;4.57;4.10;;;24.30;99.90;;;;;;6133777;28;88186;-66
2022/06/29 06:26:46;;;;;;;3.97;3.58;;;24.30;99.90;;;;;;6137041;28;89097;-67
2022/06/29 06:29:48;;;;;;;5.20;4.20;;;24.30;99.90;;;;;;6138093;28;89139;-66
2022/06/29 06:32:50;;;;;;;5.75;4.18;;;24.30;99.90;;;;;;6136555;28;89018;-66
2022/06/29 06:35:52;;;;;;;5.25;3.88;;;24.40;99.90;;;;;;6141336;28;89045;-65
2022/06/29 06:38:54;;;;;;;4.93;4.03;;;24.30;99.90;;;;;;6132563;28;88708;-66
2022/06/29 06:41:57;;;;;;;4.43;4.03;;;24.30;99.90;;;;;;6132986;28;89131;-67
2022/06/29 06:44:59;;;;;;;4.80;4.20;;;24.30;99.90;;;;;;6143071;28;89170;-66
2022/06/29 06:48:01;;;;;;;5.82;3.90;;;24.30;99.90;;;;;;6144140;28;89980;-66
2022/06/29 06:51:03;;;;;;;5.63;3.92;;;24.30;99.90;;;;;;6135094;28;89450;-66
2022/06/29 06:54:05;;;;;;;6.40;4.70;;;24.30;99.90;;;;;;6154026;28;88010;-66
2022/06/29 06:57:09;;;;;;;5.60;4.75;;;24.30;99.90;;;;;;6151288;28;89094;-66
2022/06/29 07:00:11;;;;;;;6.15;4.50;;;24.30;99.90;;;;;;6146319;28;89424;-66
2022/06/29 07:03:13;;;;;;;5.95;4.80;;;24.30;99.90;;;;;;6133312;28;87875;-66
2022/06/29 07:06:15;;;;;;;5.50;4.95;;;24.30;99.90;;;;;;6133296;28;88098;-66
2022/06/29 07:09:17;;;;;;;5.65;5.00;;;24.30;99.90;;;;;;6136405;28;88384;-66
2022/06/29 07:12:21;;;;;;;6.07;5.22;;;24.30;99.90;;;;;;6140711;28;89359;-66
2022/06/29 07:15:23;;;;;;;5.80;5.20;;;24.20;99.90;;;;;;6138144;28;89118;-66
2022/06/29 07:18:25;;;;;;;5.47;4.88;;;24.20;99.90;;;;;;6143225;28;90017;-66
2022/06/29 07:21:27;;;;;;;6.28;5.63;;;24.20;99.90;;;;;;6141290;28;89578;-66
2022/06/29 07:24:29;;;;;;;6.20;5.55;;;24.20;99.90;;;;;;6137759;28;89396;-66
2022/06/29 07:27:32;;;;;;;5.75;5.13;;;24.20;99.90;;;;;;6139308;28;88238;-66
2022/06/29 07:30:34;;;;;;;6.85;5.93;;;24.20;99.90;;;;;;6138351;28;89255;-66
2022/06/29 07:33:36;;;;;;;8.20;6.22;;;24.20;99.90;;;;;;6144589;28;89466;-66
2022/06/29 07:36:38;;;;;;;6.68;5.90;;;24.20;99.90;;;;;;6137727;28;89118;-66
2022/06/29 07:39:40;;;;;;;6.57;5.90;;;24.10;99.90;;;;;;6142888;28;88585;-66
2022/06/29 07:42:44;;;;;;;7.78;5.70;;;24.10;99.90;;;;;;6141066;28;89111;-66
2022/06/29 07:45:46;;;;;;;7.68;5.70;;;24.10;99.90;;;;;;6139782;28;89818;-66
2022/06/29 07:48:48;;;;;;;9.27;6.53;;;24.10;99.90;;;;;;6143408;28;90122;-66
2022/06/29 07:51:52;;;;;;;6.57;5.78;;;24.10;99.90;;;;;;6146557;28;89141;-66
2022/06/29 07:54:54;;;;;;;5.95;5.35;;;24.10;99.90;;;;;;6146421;28;89515;-66
2022/06/29 07:57:57;;;;;;;8.02;5.57;;;24.00;99.90;;;;;;6157770;28;89353;-66
2022/06/29 08:00:59;;;;;;;7.38;5.45;;;24.00;99.90;;;;;;6144757;28;89690;-66
2022/06/29 08:04:01;;;;;;;7.30;5.60;;;24.00;99.90;;;;;;6145212;28;89453;-66
2022/06/29 08:07:03;;;;;;;11.75;5.38;;;24.00;99.90;;;;;;6141167;28;89021;-66
2022/06/29 08:10:08;;;;;;;9.07;5.57;;;24.00;99.90;;;;;;6134819;28;88271;-66
2022/06/29 08:13:11;;;;;;;6.47;5.30;;;24.00;99.90;;;;;;6136019;28;88914;-67
2022/06/29 08:16:13;;;;;;;7.63;5.40;;;24.10;99.90;;;;;;6145603;28;89070;-67
2022/06/29 08:19:15;;;;;;;7.18;5.68;;;24.10;99.90;;;;;;6148334;28;90122;-68
2022/06/29 08:22:17;;;;;;;7.13;5.90;;;24.10;99.90;;;;;;6141767;28;89415;-68
2022/06/29 08:25:19;;;;;;;7.90;6.10;;;24.10;99.90;;;;;;6137717;28;89282;-67
2022/06/29 08:28:23;;;;;;;7.88;6.38;;;24.10;99.90;;;;;;6150114;28;89156;-67
2022/06/29 08:31:25;;;;;;;7.57;6.20;;;24.10;99.90;;;;;;6141843;28;89444;-68
2022/06/29 08:34:29;;;;;;;7.82;5.82;;;24.10;99.90;;;;;;6144683;28;89061;-69
2022/06/29 08:37:31;;;;;;;6.55;5.82;;;24.10;99.90;;;;;;6137784;28;89096;-67
2022/06/29 08:40:44;;;;;;;6.68;5.53;;;24.10;99.90;;;;;;6137764;28;88140;-67
2022/06/29 08:43:48;;;;;;;7.20;5.43;;;24.10;99.90;;;;;;6151246;28;87922;-67
2022/06/29 08:46:50;;;;;;;6.05;4.95;;;24.10;99.90;;;;;;6149892;28;91325;-67
2022/06/29 08:49:52;;;;;;;6.05;5.20;;;24.10;99.90;;;;;;6144578;28;88915;-67
2022/06/29 08:52:58;;;;;;;8.00;5.22;;;24.10;99.90;;;;;;6140231;28;89093;-67
2022/06/29 08:56:02;;;;;;;6.15;5.20;;;24.10;99.90;;;;;;6143049;28;89412;-67
2022/06/29 08:59:06;;;;;;;5.22;4.72;;;24.10;99.90;;;;;;6148506;28;89077;-68
2022/06/29 09:02:08;;;;;;;7.53;5.68;;;24.10;99.90;;;;;;6142250;28;88669;-67
2022/06/29 09:05:11;;;;;;;6.68;4.95;;;24.10;99.90;;;;;;6143386;28;89901;-67
2022/06/29 09:08:13;;;;;;;5.75;4.57;;;24.00;99.90;;;;;;6146816;28;89414;-67
2022/06/29 09:11:23;;;;;;;5.50;5.00;;;24.00;99.90;;;;;;6142784;28;88355;-65
2022/06/29 09:14:28;;;;;;;6.82;5.00;;;24.00;99.90;;;;;;6150671;28;89471;-65
2022/06/29 09:17:32;;;;;;;6.45;5.03;;;24.00;99.90;;;;;;6148086;28;89141;-65
2022/06/29 09:20:41;;;;;;;6.18;4.97;;;23.90;99.90;;;;;;6145965;28;90206;-65
2022/06/29 09:23:44;;;;;;;7.53;5.38;;;23.90;99.90;;;;;;6141298;28;89297;-65
2022/06/29 09:26:51;;;;;;;6.43;5.25;;;23.90;99.90;;;;;;6137438;28;91357;-65
2022/06/29 09:29:54;;;;;;;7.10;5.35;;;23.90;99.90;;;;;;6133666;28;89513;-65
2022/06/29 09:33:01;;;;;;;6.93;5.05;;;23.80;99.90;;;;;;6144514;28;89107;-65
2022/06/29 09:36:08;;;;;;;6.53;5.43;;;23.70;99.90;;;;;;6136205;28;89272;-65
2022/06/29 09:39:11;;;;;;;6.70;5.30;;;23.70;99.90;;;;;;6149385;28;89103;-65
2022/06/29 09:42:14;;;;;;;7.30;5.43;;;23.70;99.90;;;;;;6144277;28;88345;-65
2022/06/29 09:45:18;;;;;;;7.30;5.68;;;23.60;99.90;;;;;;6132773;28;89062;-67
2022/06/29 09:48:23;;;;;;;6.90;5.43;;;23.60;99.90;;;;;;6143982;28;89159;-66
2022/06/29 09:51:31;;;;;;;8.30;5.80;;;23.60;99.90;;;;;;6132781;28;90070;-66
2022/06/29 09:54:38;;;;;;;6.78;5.75;;;23.60;99.90;;;;;;6148560;28;89380;-66
2022/06/29 09:57:41;;;;;;;7.95;5.43;;;23.60;99.90;;;;;;6137128;28;89273;-65
2022/06/29 10:04:04;;;;;;;6.85;6.03;;;23.60;99.90;;;;;;6143157;28;87862;-65
2022/06/29 10:07:06;;;;;;;11.32;8.68;;;23.60;99.90;;;;;;6151381;28;88383;-66
2022/06/29 10:10:11;;;;;;;18.60;15.07;;;23.70;99.90;;;;;;6141331;28;88036;-65
2022/06/29 10:16:50;;;;;;;21.45;18.67;;;23.70;99.90;;;;;;6141202;28;87236;-65
2022/06/29 10:20:07;;;;;;;19.02;17.05;;;23.80;99.90;;;;;;6142283;28;89091;-66
2022/06/29 10:23:09;;;;;;;29.48;16.48;;;23.80;99.90;;;;;;6138130;28;90014;-64
2022/06/29 10:26:41;;;;;;;74.15;41.47;;;23.90;99.90;;;;;;6131624;28;89129;-67
2022/06/29 10:29:43;;;;;;;17.70;12.68;;;23.80;99.90;;;;;;6149329;28;89142;-66
2022/06/29 10:32:47;;;;;;;11.45;9.07;;;23.80;99.90;;;;;;6141240;28;89115;-67
2022/06/29 10:36:01;;;;;;;10.07;8.85;;;23.70;99.90;;;;;;6147620;28;88045;-66
2022/06/29 10:39:12;;;;;;;9.10;8.02;;;23.70;99.90;;;;;;6136697;28;88367;-66
2022/06/29 10:45:57;;;;;;;8.20;6.82;;;23.60;99.90;;;;;;6142379;28;86683;-66
2022/06/29 10:49:22;;;;;;;6.85;5.57;;;23.60;99.90;;;;;;6142604;28;89105;-66
2022/06/29 10:52:24;;;;;;;7.07;4.95;;;23.60;99.90;;;;;;6138392;28;88680;-66
2022/06/29 10:55:29;;;;;;;7.45;4.30;;;23.60;99.90;;;;;;6133896;28;89482;-66
2022/06/29 10:58:33;;;;;;;6.03;4.10;;;23.60;99.90;;;;;;6139831;28;89076;-66
2022/06/29 11:01:35;;;;;;;5.70;4.00;;;23.60;99.90;;;;;;6154711;28;88032;-66
2022/06/29 11:04:39;;;;;;;6.65;4.03;;;23.60;99.90;;;;;;6148879;28;89449;-66
2022/06/29 11:17:48;;;;;;;8.05;4.63;;;23.60;99.90;;;;;;6146643;28;86600;-64
2022/06/29 11:20:52;;;;;;;6.53;4.32;;;23.50;99.90;;;;;;6147112;28;89222;-66
2022/06/29 11:24:02;;;;;;;6.78;4.68;;;23.50;99.90;;;;;;6137438;28;89184;-65
2022/06/29 11:27:05;;;;;;;6.90;4.47;;;23.50;99.90;;;;;;6154558;28;90382;-65
2022/06/29 11:30:09;;;;;;;5.20;4.20;;;23.50;99.90;;;;;;6138735;28;89383;-65
2022/06/29 11:33:12;;;;;;;6.28;4.57;;;23.60;99.90;;;;;;6147544;28;88210;-65
2022/06/29 11:36:17;;;;;;;6.30;4.50;;;23.50;99.90;;;;;;6135533;28;89248;-65
2022/06/29 11:39:21;;;;;;;5.97;4.65;;;23.50;99.90;;;;;;6149179;28;89351;-65
2022/06/29 11:45:52;;;;;;;6.32;4.70;;;23.50;99.90;;;;;;6145432;28;87606;-65
2022/06/29 11:52:16;;;;;;;5.05;4.55;;;23.60;99.90;;;;;;6151794;28;87344;-65
2022/06/29 11:55:39;;;;;;;4.93;4.43;;;23.60;99.90;;;;;;6141180;28;89204;-64
2022/06/29 11:58:43;;;;;;;6.40;4.57;;;23.60;99.90;;;;;;6153677;28;88905;-65
2022/06/29 12:01:53;;;;;;;5.57;4.20;;;23.60;99.90;;;;;;6139420;28;88927;-65
2022/06/29 12:05:00;;;;;;;5.88;4.20;;;23.50;99.90;;;;;;6134819;28;89319;-65
2022/06/29 12:08:04;;;;;;;5.68;4.28;;;23.60;99.90;;;;;;6146695;28;88930;-65
2022/06/29 12:11:06;;;;;;;6.50;4.50;;;23.60;99.90;;;;;;6137173;28;88960;-65
2022/06/29 12:14:08;;;;;;;6.13;4.47;;;23.50;99.90;;;;;;6153486;28;89684;-65
2022/06/29 12:17:13;;;;;;;7.40;4.55;;;23.50;99.90;;;;;;6134949;28;89388;-65
2022/06/29 12:20:15;;;;;;;5.40;3.92;;;23.60;99.90;;;;;;6147971;28;88379;-66
2022/06/29 12:23:18;;;;;;;5.57;4.00;;;23.60;99.90;;;;;;6155728;28;87933;-65
2022/06/29 12:26:21;;;;;;;4.45;3.67;;;23.60;99.90;;;;;;6154415;28;89073;-65
2022/06/29 12:29:23;;;;;;;6.53;4.43;;;23.60;99.90;;;;;;6133395;28;90319;-65
2022/06/29 12:32:25;;;;;;;7.55;4.10;;;23.60;99.90;;;;;;6147503;28;88989;-65
2022/06/29 12:35:28;;;;;;;5.10;4.18;;;23.60;99.90;;;;;;6145480;28;89193;-65
2022/06/29 12:38:32;;;;;;;6.05;3.95;;;23.60;99.90;;;;;;6148962;28;89839;-65
2022/06/29 12:41:34;;;;;;;5.50;4.68;;;23.60;99.90;;;;;;6146344;28;88918;-65
2022/06/29 12:44:36;;;;;;;5.32;4.00;;;23.70;99.90;;;;;;6147014;28;88140;-65
2022/06/29 12:47:38;;;;;;;6.22;4.38;;;23.70;99.90;;;;;;6139759;28;89481;-65
2022/06/29 12:50:41;;;;;;;6.68;4.60;;;23.70;99.90;;;;;;6141663;28;88621;-65
2022/06/29 12:53:45;;;;;;;6.75;4.63;;;23.70;99.90;;;;;;6142124;28;90278;-65
2022/06/29 12:56:47;;;;;;;8.25;4.78;;;23.70;99.90;;;;;;6144071;28;89131;-66
2022/06/29 12:59:49;;;;;;;5.18;4.68;;;23.60;99.90;;;;;;6148812;28;90178;-66
2022/06/29 13:02:51;;;;;;;5.30;4.80;;;23.60;99.90;;;;;;6141788;28;89484;-65
2022/06/29 13:05:53;;;;;;;6.50;4.63;;;23.70;99.90;;;;;;6144289;28;89177;-65
2022/06/29 13:08:56;;;;;;;6.35;5.18;;;23.70;99.90;;;;;;6141304;28;89071;-65
2022/06/29 13:11:58;;;;;;;6.03;5.00;;;23.70;99.90;;;;;;6149398;28;89116;-65
2022/06/29 13:15:01;;;;;;;8.93;5.20;;;23.70;99.90;;;;;;6140722;28;89334;-65
2022/06/29 13:18:04;;;;;;;6.57;4.80;;;23.70;99.90;;;;;;6143149;28;87822;-65
2022/06/29 13:21:06;;;;;;;6.38;5.10;;;23.70;99.90;;;;;;6141250;28;88691;-65
2022/06/29 13:24:09;;;;;;;5.53;5.03;;;23.70;99.90;;;;;;6147221;28;87920;-65
2022/06/29 13:27:11;;;;;;;6.97;5.07;;;23.70;99.90;;;;;;6151296;28;89084;-65
2022/06/29 13:30:14;;;;;;;5.57;5.07;;;23.70;99.90;;;;;;6134923;28;90625;-66
2022/06/29 13:33:16;;;;;;;5.63;5.13;;;23.70;99.90;;;;;;6141728;28;89173;-65
2022/06/29 13:36:18;;;;;;;7.30;5.32;;;23.70;99.90;;;;;;6155461;28;89119;-65
2022/06/29 13:39:21;;;;;;;7.40;5.97;;;23.70;99.90;;;;;;6139413;28;89074;-65
2022/06/29 13:42:23;;;;;;;7.30;5.47;;;23.70;99.90;;;;;;6134688;28;87126;-65
2022/06/29 13:45:25;;;;;;;6.47;5.20;;;23.70;99.90;;;;;;6133552;28;89149;-65
2022/06/29 13:48:28;;;;;;;5.38;4.75;;;23.70;99.90;;;;;;6146172;28;89135;-65
2022/06/29 13:51:30;;;;;;;7.55;5.25;;;23.70;99.90;;;;;;6146646;28;87145;-65
2022/06/29 13:54:35;;;;;;;6.85;4.63;;;23.70;99.90;;;;;;6147800;28;88841;-65
2022/06/29 13:57:37;;;;;;;5.10;4.47;;;23.70;99.90;;;;;;6139849;28;89390;-65
2022/06/29 14:00:39;;;;;;;5.03;4.28;;;23.70;99.90;;;;;;6139642;28;88633;-65
2022/06/29 14:03:42;;;;;;;5.40;4.15;;;23.60;99.90;;;;;;6137961;28;89437;-65
2022/06/29 14:06:44;;;;;;;6.57;4.28;;;23.70;99.90;;;;;;6147080;28;89049;-66
2022/06/29 14:09:47;;;;;;;4.80;4.25;;;23.70;99.90;;;;;;6136562;28;89157;-66
2022/06/29 14:12:50;;;;;;;6.50;3.80;;;23.70;99.90;;;;;;6146677;28;89013;-66
2022/06/29 14:15:52;;;;;;;6.80;3.90;;;23.70;99.90;;;;;;6133154;28;89134;-65
2022/06/29 14:18:54;;;;;;;5.28;3.97;;;23.60;99.90;;;;;;6154591;28;88911;-66
2022/06/29 14:21:57;;;;;;;6.72;4.70;;;23.60;99.90;;;;;;6145224;28;87535;-66
2022/06/29 14:25:01;;;;;;;6.75;4.47;;;23.70;99.90;;;;;;6143159;28;89116;-65
2022/06/29 14:28:03;;;;;;;5.90;4.90;;;23.60;99.90;;;;;;6147260;28;89381;-65
2022/06/29 14:31:05;;;;;;;6.90;4.93;;;23.60;99.90;;;;;;6142254;28;89992;-66
2022/06/29 14:34:07;;;;;;;7.43;4.97;;;23.60;99.90;;;;;;6137017;28;89148;-65
2022/06/29 14:37:09;;;;;;;6.32;5.07;;;23.60;99.90;;;;;;6139219;28;88984;-65
2022/06/29 14:40:13;;;;;;;9.20;5.80;;;23.60;99.90;;;;;;6131611;28;89382;-66
2022/06/29 14:43:15;;;;;;;5.88;4.55;;;23.60;99.90;;;;;;6142521;28;89208;-65
2022/06/29 14:46:17;;;;;;;6.72;4.85;;;23.60;99.90;;;;;;6150993;28;90351;-65
2022/06/29 14:49:19;;;;;;;5.40;4.72;;;23.60;99.90;;;;;;6143347;28;89032;-66
2022/06/29 14:52:22;;;;;;;5.78;5.10;;;23.60;99.90;;;;;;6148600;28;88649;-66
2022/06/29 14:55:25;;;;;;;5.68;4.97;;;23.60;99.90;;;;;;6151012;28;89324;-65
2022/06/29 14:58:27;;;;;;;6.25;4.70;;;23.60;99.90;;;;;;6143725;28;88990;-65
2022/06/29 15:01:29;;;;;;;6.57;5.18;;;23.60;99.90;;;;;;6140798;28;90318;-66
2022/06/29 15:04:31;;;;;;;8.45;5.47;;;23.60;99.90;;;;;;6139419;28;89104;-66
2022/06/29 15:07:34;;;;;;;7.50;5.25;;;23.60;99.90;;;;;;6138316;28;89151;-66
2022/06/29 15:10:38;;;;;;;5.45;4.95;;;23.60;99.90;;;;;;6140809;28;89486;-66
2022/06/29 15:13:39;;;;;;;6.90;5.40;;;23.70;99.90;;;;;;6143764;28;89076;-66
2022/06/29 15:16:43;;;;;;;5.85;5.00;;;23.70;99.90;;;;;;6143759;28;88304;-66
2022/06/29 15:19:45;;;;;;;6.90;5.50;;;23.70;99.90;;;;;;6147703;28;89296;-65
2022/06/29 15:22:47;;;;;;;6.30;4.80;;;23.70;99.90;;;;;;6140401;28;88243;-65
2022/06/29 15:25:51;;;;;;;7.25;5.57;;;23.60;99.90;;;;;;6149336;28;89200;-65
2022/06/29 15:28:52;;;;;;;9.35;5.95;;;23.70;99.90;;;;;;6147349;28;89088;-65
2022/06/29 15:31:57;;;;;;;12.80;6.10;;;23.70;99.90;;;;;;6139608;28;90034;-65
2022/06/29 15:41:39;;;;;;;8.82;6.25;;;23.70;99.90;;;;;;6134464;28;87163;-65
2022/06/29 15:44:41;;;;;;;7.03;5.60;;;23.70;99.90;;;;;;6152494;28;89046;-65
2022/06/29 15:47:43;;;;;;;6.80;5.65;;;23.70;99.90;;;;;;6140246;28;88892;-65
2022/06/29 15:50:45;;;;;;;7.47;5.78;;;23.60;99.90;;;;;;6145243;28;89067;-65
2022/06/29 15:57:08;;;;;;;7.57;6.22;;;23.70;99.90;;;;;;6133478;28;87029;-65
2022/06/29 16:00:16;;;;;;;6.55;5.93;;;23.70;99.90;;;;;;6144428;28;87981;-65
2022/06/29 16:03:18;;;;;;;7.70;5.80;;;23.70;99.90;;;;;;6153462;28;90252;-65
2022/06/29 16:06:20;;;;;;;8.35;5.72;;;23.70;99.90;;;;;;6139033;28;88312;-65
2022/06/29 16:09:22;;;;;;;7.50;5.72;;;23.70;99.90;;;;;;6132304;28;89408;-65
2022/06/29 16:12:25;;;;;;;9.10;5.80;;;23.70;99.90;;;;;;6134284;28;88734;-65
2022/06/29 16:15:27;;;;;;;7.65;6.00;;;23.80;99.90;;;;;;6142476;28;89173;-65
2022/06/29 16:18:29;;;;;;;9.45;6.55;;;23.80;99.90;;;;;;6142011;28;89735;-64
2022/06/29 16:21:31;;;;;;;7.55;5.45;;;23.70;99.90;;;;;;6142125;28;91043;-65
2022/06/29 16:24:33;;;;;;;8.27;5.80;;;23.80;99.90;;;;;;6137895;28;88868;-65
2022/06/29 16:27:37;;;;;;;8.10;6.07;;;23.80;99.90;;;;;;6151609;28;89180;-65
2022/06/29 16:30:39;;;;;;;8.10;5.75;;;23.80;99.90;;;;;;6145576;28;88291;-64
2022/06/29 16:33:41;;;;;;;7.05;6.00;;;23.80;99.90;;;;;;6144921;28;89445;-65